Time;durP1;ratioP1;P1;durP2;ratioP2;P2;SDS_P1;SDS_P2;PMS_P1;PMS_P2;Temp;Humidity;BMP_temperature;BMP_pressure;BME280_temperature;BME280_humidity;BME280_pressure;Samples;Min_cycle;Max_cycle;Signal;HPM_P1;HPM_P2
2022/08/14 00:00:53;;;;;;;13.38;6.45;;;15.60;99.90;;;;;;5069815;28;20044;-60
2022/08/14 00:03:26;;;;;;;10.85;5.93;;;15.70;99.90;;;;;;5068731;28;20040;-59
2022/08/14 00:05:53;;;;;;;7.90;5.90;;;15.70;99.90;;;;;;5070766;28;20032;-59
2022/08/14 00:08:19;;;;;;;12.48;6.03;;;15.50;99.90;;;;;;5070486;28;20359;-59
2022/08/14 00:10:44;;;;;;;9.80;6.50;;;15.40;99.90;;;;;;5055352;28;20047;-62
2022/08/14 00:13:11;;;;;;;8.50;6.13;;;15.30;99.90;;;;;;5061001;28;20089;-61
2022/08/14 00:15:39;;;;;;;8.07;5.95;;;15.30;99.90;;;;;;5070396;28;20044;-60
2022/08/14 00:18:06;;;;;;;10.93;5.72;;;15.30;99.90;;;;;;5067309;28;20044;-60
2022/08/14 00:20:34;;;;;;;7.70;6.00;;;15.30;99.90;;;;;;5071268;28;20035;-59
2022/08/14 00:23:00;;;;;;;9.75;6.28;;;15.20;99.90;;;;;;5059664;28;20047;-59
2022/08/14 00:25:27;;;;;;;9.18;6.40;;;15.00;99.90;;;;;;5066219;28;20020;-59
2022/08/14 00:27:53;;;;;;;9.80;6.20;;;14.90;99.90;;;;;;5050988;28;20120;-60
2022/08/14 00:30:19;;;;;;;11.98;5.72;;;14.80;99.90;;;;;;5066141;28;20550;-59
2022/08/14 00:32:45;;;;;;;10.52;6.40;;;14.90;99.90;;;;;;5061043;28;20115;-62
2022/08/14 00:35:11;;;;;;;8.82;6.18;;;14.90;99.90;;;;;;5069094;28;20035;-59
2022/08/14 00:37:45;;;;;;;8.32;5.93;;;14.90;99.90;;;;;;5070829;28;20044;-59
2022/08/14 00:40:14;;;;;;;10.70;5.75;;;15.00;99.90;;;;;;5067246;28;20082;-59
2022/08/14 00:42:40;;;;;;;7.63;5.68;;;15.10;99.90;;;;;;5070596;28;20465;-59
2022/08/14 00:45:08;;;;;;;7.13;5.55;;;15.10;99.90;;;;;;5069262;28;20051;-60
2022/08/14 00:47:34;;;;;;;12.65;6.50;;;15.20;99.90;;;;;;5069484;28;20094;-59
2022/08/14 00:50:01;;;;;;;10.45;6.60;;;15.10;99.90;;;;;;5064412;28;20033;-59
2022/08/14 00:52:28;;;;;;;8.90;6.03;;;15.10;99.90;;;;;;5069470;28;20103;-59
2022/08/14 00:54:55;;;;;;;8.52;6.47;;;15.10;99.90;;;;;;5069521;28;20116;-60
2022/08/14 00:57:26;;;;;;;11.00;6.60;;;15.00;99.90;;;;;;5068880;28;20037;-58
2022/08/14 00:59:52;;;;;;;9.57;6.43;;;14.90;99.90;;;;;;5068080;28;20028;-59
2022/08/14 01:02:23;;;;;;;9.63;6.57;;;14.70;99.90;;;;;;5068927;28;20085;-60
2022/08/14 01:04:56;;;;;;;11.38;6.53;;;14.50;99.90;;;;;;5055548;28;20021;-61
2022/08/14 01:07:23;;;;;;;13.57;6.57;;;14.50;99.90;;;;;;5062858;28;20163;-58
2022/08/14 01:09:51;;;;;;;9.73;6.18;;;14.40;99.90;;;;;;5067995;28;20488;-61
2022/08/14 01:12:18;;;;;;;13.75;6.53;;;14.50;99.90;;;;;;5070934;28;20047;-59
2022/08/14 01:14:44;;;;;;;9.02;6.25;;;14.60;99.90;;;;;;5068191;28;20032;-60
2022/08/14 01:17:11;;;;;;;11.00;6.43;;;14.50;99.90;;;;;;5065461;28;20032;-61
2022/08/14 01:22:21;;;;;;;13.40;6.25;;;14.30;99.90;;;;;;5065233;28;20031;-59
2022/08/14 01:24:47;;;;;;;10.73;6.43;;;14.30;99.90;;;;;;5069696;28;20032;-61
2022/08/14 01:27:19;;;;;;;10.35;7.32;;;14.30;99.90;;;;;;5064935;28;20040;-59
2022/08/14 01:29:50;;;;;;;22.63;7.03;;;14.30;99.90;;;;;;5063766;28;20103;-60
2022/08/14 01:32:17;;;;;;;9.30;6.65;;;14.20;99.90;;;;;;5067891;28;20375;-59
2022/08/14 01:34:52;;;;;;;9.35;6.45;;;14.20;99.90;;;;;;5062228;28;20032;-59
2022/08/14 01:37:22;;;;;;;8.52;6.75;;;14.10;99.90;;;;;;5055311;28;20115;-59
2022/08/14 01:39:48;;;;;;;11.00;6.80;;;14.10;99.90;;;;;;5068966;28;20056;-61
2022/08/14 01:42:14;;;;;;;12.65;7.10;;;14.10;99.90;;;;;;5068461;28;20090;-59
2022/08/14 01:44:40;;;;;;;10.15;6.88;;;14.20;99.90;;;;;;5068168;28;20386;-59
2022/08/14 01:47:14;;;;;;;9.73;6.93;;;14.20;99.90;;;;;;5063256;28;20056;-59
2022/08/14 01:49:40;;;;;;;11.02;7.18;;;14.20;99.90;;;;;;5068214;28;20032;-59
2022/08/14 01:52:06;;;;;;;10.52;6.93;;;14.10;99.90;;;;;;5058105;28;20028;-60
2022/08/14 01:54:33;;;;;;;10.90;7.00;;;14.10;99.90;;;;;;5068732;28;20036;-59
2022/08/14 01:56:58;;;;;;;12.63;7.13;;;14.10;99.90;;;;;;5055994;28;20036;-59
2022/08/14 01:59:33;;;;;;;13.18;7.50;;;14.00;99.90;;;;;;5069356;28;20028;-58
2022/08/14 02:02:11;;;;;;;10.55;6.47;;;14.00;99.90;;;;;;5049148;28;20032;-58
2022/08/14 02:04:37;;;;;;;11.93;7.10;;;14.00;99.90;;;;;;5066601;28;20036;-59
2022/08/14 02:07:05;;;;;;;10.98;7.30;;;14.00;99.90;;;;;;5063569;28;20044;-60
2022/08/14 02:09:34;;;;;;;9.68;6.82;;;14.00;99.90;;;;;;5061851;28;20024;-59
2022/08/14 02:12:01;;;;;;;9.77;7.20;;;14.10;99.90;;;;;;5067529;28;20032;-59
2022/08/14 02:14:28;;;;;;;11.18;7.20;;;14.10;99.90;;;;;;5062364;28;20111;-59
2022/08/14 02:16:56;;;;;;;11.82;7.78;;;14.00;99.90;;;;;;5057560;28;20440;-62
2022/08/14 02:19:25;;;;;;;9.23;6.68;;;13.90;99.90;;;;;;5068974;28;20024;-59
2022/08/14 02:21:54;;;;;;;14.40;7.70;;;13.80;99.90;;;;;;5065898;28;20033;-62
2022/08/14 02:24:22;;;;;;;10.63;7.43;;;13.80;99.90;;;;;;5068894;28;20040;-59
2022/08/14 02:26:49;;;;;;;10.73;7.20;;;13.70;99.90;;;;;;5062156;28;20112;-59
2022/08/14 02:29:18;;;;;;;12.63;7.32;;;13.80;99.90;;;;;;5054190;28;20107;-59
2022/08/14 02:31:52;;;;;;;15.82;7.45;;;13.90;99.90;;;;;;5067020;28;20068;-60
2022/08/14 02:34:20;;;;;;;11.10;7.38;;;13.90;99.90;;;;;;5068345;28;20033;-59
2022/08/14 02:36:50;;;;;;;9.85;6.85;;;13.80;99.90;;;;;;5062060;28;20049;-59
2022/08/14 02:39:16;;;;;;;11.43;7.07;;;13.80;99.90;;;;;;5067429;28;20493;-59
2022/08/14 02:41:42;;;;;;;9.63;7.20;;;13.90;99.90;;;;;;5065466;28;20032;-59
2022/08/14 02:44:09;;;;;;;10.23;7.13;;;13.90;99.90;;;;;;5061839;28;20033;-59
2022/08/14 02:46:36;;;;;;;9.55;6.97;;;13.70;99.90;;;;;;5059383;28;20048;-60
2022/08/14 02:49:02;;;;;;;10.77;7.40;;;13.60;99.90;;;;;;5068618;28;20037;-59
2022/08/14 02:51:28;;;;;;;11.30;7.43;;;13.40;99.90;;;;;;5066421;28;20085;-59
2022/08/14 02:53:54;;;;;;;10.40;7.10;;;13.20;99.90;;;;;;5068507;28;20530;-61
2022/08/14 02:56:21;;;;;;;12.77;7.07;;;13.10;99.90;;;;;;5065677;28;20037;-58
2022/08/14 02:58:49;;;;;;;12.52;7.45;;;13.10;99.90;;;;;;5072013;28;20033;-59
2022/08/14 03:01:17;;;;;;;10.85;7.35;;;13.10;99.90;;;;;;5070223;28;20157;-59
2022/08/14 03:03:45;;;;;;;11.95;7.72;;;13.20;99.90;;;;;;5073382;28;20021;-59
2022/08/14 03:06:13;;;;;;;12.90;7.65;;;13.20;99.90;;;;;;5069242;28;20028;-59
2022/08/14 03:08:41;;;;;;;14.88;7.82;;;13.20;99.90;;;;;;5070636;28;20032;-58
2022/08/14 03:11:09;;;;;;;10.80;7.18;;;13.30;99.90;;;;;;5071006;28;20051;-59
2022/08/14 03:13:41;;;;;;;11.60;7.20;;;13.40;99.90;;;;;;5070879;28;20036;-60
2022/08/14 03:16:09;;;;;;;10.80;7.03;;;13.40;99.90;;;;;;5069611;28;20028;-59
2022/08/14 03:18:43;;;;;;;13.52;7.90;;;13.40;99.90;;;;;;5072260;28;20112;-60
2022/08/14 03:21:15;;;;;;;11.20;7.30;;;13.40;99.90;;;;;;5069685;28;20123;-59
2022/08/14 03:23:43;;;;;;;12.82;7.78;;;13.10;99.90;;;;;;5071971;28;20067;-61
2022/08/14 03:26:12;;;;;;;12.60;7.45;;;13.10;99.90;;;;;;5058639;28;20053;-58
2022/08/14 03:28:40;;;;;;;9.73;7.13;;;13.10;99.90;;;;;;5059390;28;20071;-60
2022/08/14 03:31:06;;;;;;;11.60;7.40;;;13.10;99.90;;;;;;5067542;28;20070;-60
2022/08/14 03:33:36;;;;;;;11.15;7.53;;;13.10;99.90;;;;;;5068354;28;20608;-58
2022/08/14 03:36:07;;;;;;;14.65;7.82;;;13.00;99.90;;;;;;5066536;28;20463;-59
2022/08/14 03:38:33;;;;;;;10.40;7.40;;;13.10;99.90;;;;;;5067832;28;20035;-59
2022/08/14 03:40:59;;;;;;;14.52;7.93;;;13.00;99.90;;;;;;5061345;28;20029;-61
2022/08/14 03:43:25;;;;;;;15.63;7.88;;;13.00;99.90;;;;;;5065166;28;20439;-59
2022/08/14 03:45:51;;;;;;;13.05;7.70;;;13.00;99.90;;;;;;5062228;28;20041;-59
2022/08/14 03:48:20;;;;;;;21.45;7.88;;;13.00;99.90;;;;;;5069142;28;20032;-62
2022/08/14 03:50:48;;;;;;;14.32;7.80;;;13.00;99.90;;;;;;5063373;28;20036;-62
2022/08/14 03:53:14;;;;;;;11.43;7.88;;;13.00;99.90;;;;;;5061449;28;20037;-62
2022/08/14 03:55:41;;;;;;;15.95;7.70;;;13.00;99.90;;;;;;5059769;28;20028;-61
2022/08/14 03:58:07;;;;;;;11.45;7.90;;;13.10;99.90;;;;;;5070635;28;20177;-60
2022/08/14 04:00:35;;;;;;;11.15;7.35;;;13.10;99.90;;;;;;5070084;28;21735;-60
2022/08/14 04:03:04;;;;;;;11.48;7.55;;;12.90;99.90;;;;;;5052840;28;20028;-59
2022/08/14 04:05:31;;;;;;;9.32;7.05;;;13.00;99.90;;;;;;5069682;28;20032;-58
2022/08/14 04:07:57;;;;;;;14.23;8.18;;;13.00;99.90;;;;;;5069571;28;20064;-61
2022/08/14 04:10:23;;;;;;;11.85;7.90;;;12.80;99.90;;;;;;5067380;28;20040;-59
2022/08/14 04:12:49;;;;;;;10.40;7.50;;;12.70;99.90;;;;;;5070877;28;20032;-59
2022/08/14 04:15:18;;;;;;;10.57;7.57;;;12.60;99.90;;;;;;5063860;28;20037;-59
2022/08/14 04:17:44;;;;;;;15.10;7.93;;;12.60;99.90;;;;;;5061742;28;20040;-59
2022/08/14 04:20:11;;;;;;;10.73;7.72;;;12.60;99.90;;;;;;5062289;28;20028;-59
2022/08/14 04:22:41;;;;;;;11.30;7.45;;;12.60;99.90;;;;;;5057649;28;20490;-59
2022/08/14 04:25:07;;;;;;;10.67;7.73;;;12.60;99.90;;;;;;5058398;28;20438;-60
2022/08/14 04:27:34;;;;;;;16.10;7.97;;;12.50;99.90;;;;;;5058019;28;20340;-59
2022/08/14 04:30:00;;;;;;;11.50;7.63;;;12.50;99.90;;;;;;5067460;28;20057;-61
2022/08/14 04:32:26;;;;;;;10.10;7.53;;;12.50;99.90;;;;;;5070364;28;20059;-60
2022/08/14 04:34:53;;;;;;;13.18;8.30;;;12.50;99.90;;;;;;5071101;28;20052;-61
2022/08/14 04:45:39;;;;;;;14.05;8.18;;;12.60;99.90;;;;;;5064838;28;20075;-60
2022/08/14 04:48:15;;;;;;;12.65;7.55;;;12.60;99.90;;;;;;5060142;28;20033;-60
2022/08/14 04:50:47;;;;;;;15.85;8.55;;;12.50;99.90;;;;;;5062939;28;20103;-59
2022/08/14 04:53:15;;;;;;;11.73;8.25;;;12.60;99.90;;;;;;5065854;28;20483;-58
2022/08/14 04:55:49;;;;;;;12.63;8.10;;;12.80;99.90;;;;;;5066561;28;20102;-59
2022/08/14 04:58:25;;;;;;;13.52;8.63;;;13.00;99.90;;;;;;5061495;28;20123;-60
2022/08/14 05:00:53;;;;;;;11.18;7.57;;;13.20;99.90;;;;;;5057963;28;20551;-59
2022/08/14 05:03:20;;;;;;;13.80;8.05;;;13.40;99.90;;;;;;5061331;28;20056;-59
2022/08/14 05:05:51;;;;;;;11.50;7.68;;;13.50;99.90;;;;;;5063272;28;20029;-59
2022/08/14 05:08:17;;;;;;;;;;;13.60;99.90;;;;;;5063723;28;20033;-59
2022/08/14 05:10:52;;;;;;;11.73;8.23;;;13.50;99.90;;;;;;5065134;28;19951;-60
2022/08/14 05:13:19;;;;;;;11.02;7.50;;;13.60;99.90;;;;;;5064652;28;20035;-59
2022/08/14 05:15:45;;;;;;;10.23;7.18;;;13.80;99.90;;;;;;5067523;28;20035;-60
2022/08/14 05:18:33;;;;;;;14.65;7.85;;;13.90;99.90;;;;;;5062323;28;20090;-59
2022/08/14 05:21:02;;;;;;;12.35;7.95;;;14.10;99.90;;;;;;5064908;28;20054;-60
2022/08/14 05:23:30;;;;;;;11.00;7.38;;;14.30;99.90;;;;;;5062602;28;20037;-60
2022/08/14 05:26:01;;;;;;;12.80;8.18;;;14.40;99.90;;;;;;5056629;28;20032;-59
2022/08/14 05:28:30;;;;;;;9.82;7.70;;;14.40;99.90;;;;;;5066436;28;20143;-59
2022/08/14 05:30:59;;;;;;;12.18;8.40;;;14.50;99.90;;;;;;5070410;28;20040;-60
2022/08/14 05:33:27;;;;;;;17.27;10.90;;;14.40;99.90;;;;;;5069847;28;20074;-59
2022/08/14 05:35:59;;;;;;;14.77;9.60;;;14.40;99.90;;;;;;5070489;28;20025;-59
2022/08/14 05:38:32;;;;;;;13.77;9.10;;;14.40;99.90;;;;;;5058937;28;20039;-60
2022/08/14 05:41:07;;;;;;;15.65;8.57;;;14.50;99.90;;;;;;5050355;28;20035;-60
2022/08/14 05:43:33;;;;;;;16.67;9.07;;;14.80;99.90;;;;;;5050032;28;20516;-60
2022/08/14 05:46:00;;;;;;;13.63;9.40;;;15.00;99.90;;;;;;5051025;28;20045;-59
2022/08/14 05:48:27;;;;;;;11.45;8.60;;;15.10;99.90;;;;;;5066926;28;20053;-60
2022/08/14 05:50:53;;;;;;;14.40;8.80;;;15.20;99.90;;;;;;5070105;28;20029;-59
2022/08/14 05:53:20;;;;;;;12.40;8.93;;;15.20;99.90;;;;;;5069241;28;20028;-59
2022/08/14 05:55:47;;;;;;;16.13;8.98;;;14.90;99.90;;;;;;5069934;28;20035;-59
2022/08/14 05:58:13;;;;;;;15.63;9.70;;;14.90;99.90;;;;;;5067812;28;20043;-59
2022/08/14 06:00:42;;;;;;;14.25;9.23;;;15.00;99.90;;;;;;5070001;28;20028;-59
2022/08/14 06:03:15;;;;;;;12.55;9.07;;;15.10;99.90;;;;;;5067952;28;20056;-59
2022/08/14 06:05:42;;;;;;;12.82;9.15;;;15.50;99.90;;;;;;5066755;28;20067;-59
2022/08/14 06:08:19;;;;;;;19.00;9.60;;;15.70;99.90;;;;;;5068915;28;20037;-59
2022/08/14 06:10:45;;;;;;;14.23;9.48;;;15.80;99.90;;;;;;5068412;28;20025;-59
2022/08/14 06:13:11;;;;;;;13.77;9.15;;;16.20;99.90;;;;;;5068999;28;20374;-59
2022/08/14 06:15:37;;;;;;;15.98;8.43;;;16.40;99.90;;;;;;5068164;28;20033;-59
2022/08/14 06:18:03;;;;;;;13.07;8.80;;;16.60;99.90;;;;;;5069632;28;20052;-59
2022/08/14 06:20:29;;;;;;;10.57;7.85;;;16.90;99.90;;;;;;5057120;28;20029;-59
2022/08/14 06:22:55;;;;;;;12.02;8.30;;;17.10;99.90;;;;;;5049707;28;20032;-60
2022/08/14 06:25:21;;;;;;;15.52;8.05;;;17.30;99.90;;;;;;5057562;28;20021;-59
2022/08/14 06:27:48;;;;;;;12.95;7.80;;;17.60;99.90;;;;;;5067998;28;20037;-59
2022/08/14 06:30:17;;;;;;;13.13;8.15;;;17.80;99.90;;;;;;5064322;28;20037;-60
2022/08/14 06:32:43;;;;;;;11.30;7.70;;;18.00;99.90;;;;;;5067526;28;20040;-60
2022/08/14 06:35:10;;;;;;;10.95;7.72;;;18.30;99.90;;;;;;5068737;28;20161;-59
2022/08/14 06:37:48;;;;;;;13.63;7.95;;;18.50;99.90;;;;;;5063365;28;20036;-60
2022/08/14 06:40:17;;;;;;;12.43;8.25;;;18.70;99.90;;;;;;5062924;28;20482;-61
2022/08/14 06:42:43;;;;;;;12.27;8.07;;;18.90;99.90;;;;;;5059208;28;20028;-61
2022/08/14 06:45:10;;;;;;;11.52;7.72;;;19.20;99.90;;;;;;5068829;28;20044;-62
2022/08/14 06:47:37;;;;;;;9.30;7.30;;;19.50;99.90;;;;;;5069386;28;20037;-61
2022/08/14 06:50:04;;;;;;;12.98;8.10;;;19.70;99.90;;;;;;5067121;28;20060;-60
2022/08/14 06:52:30;;;;;;;12.77;7.53;;;19.90;99.90;;;;;;5062331;28;20043;-61
2022/08/14 06:54:56;;;;;;;13.68;9.07;;;20.20;99.90;;;;;;5062609;28;20025;-60
2022/08/14 06:57:23;;;;;;;22.35;8.90;;;20.40;99.90;;;;;;5048652;28;20120;-60
2022/08/14 06:59:48;;;;;;;13.75;8.13;;;20.60;99.90;;;;;;5061190;28;20040;-60
2022/08/14 07:07:43;;;;;;;12.95;7.88;;;21.20;99.50;;;;;;5053864;28;20040;-60
2022/08/14 07:10:09;;;;;;;9.13;7.50;;;21.40;98.30;;;;;;5060393;28;20024;-63
2022/08/14 07:12:35;;;;;;;8.25;7.03;;;21.50;97.60;;;;;;5067950;28;20498;-62
2022/08/14 07:15:02;;;;;;;9.95;7.78;;;21.60;97.30;;;;;;5056640;28;20062;-60
2022/08/14 07:17:28;;;;;;;10.95;7.13;;;21.70;96.80;;;;;;5063844;28;20037;-60
2022/08/14 07:19:54;;;;;;;9.10;7.30;;;21.80;96.00;;;;;;5064746;28;20024;-62
2022/08/14 07:22:19;;;;;;;9.43;7.25;;;21.90;95.60;;;;;;5067178;28;20128;-60
2022/08/14 07:24:45;;;;;;;8.98;7.15;;;22.20;95.20;;;;;;5067563;28;20121;-63
2022/08/14 07:27:11;;;;;;;11.18;7.57;;;22.30;95.20;;;;;;5068480;28;20032;-64
2022/08/14 07:29:36;;;;;;;9.45;7.45;;;22.60;93.80;;;;;;5068733;28;20035;-60
2022/08/14 07:32:02;;;;;;;9.48;7.40;;;22.80;92.80;;;;;;5068968;28;20035;-60
2022/08/14 07:34:28;;;;;;;8.52;6.80;;;22.90;93.10;;;;;;5066714;28;20038;-61
2022/08/14 07:36:54;;;;;;;10.75;7.22;;;22.90;93.30;;;;;;5065053;28;20043;-60
2022/08/14 07:39:20;;;;;;;10.68;6.97;;;23.10;93.10;;;;;;5066372;28;20036;-59
2022/08/14 07:41:46;;;;;;;11.25;6.10;;;23.20;91.10;;;;;;5069005;28;20021;-61
2022/08/14 07:44:12;;;;;;;12.40;7.18;;;23.40;91.50;;;;;;5069687;28;20024;-63
2022/08/14 07:46:41;;;;;;;9.48;6.40;;;23.50;90.50;;;;;;5072629;28;20059;-61
2022/08/14 07:49:08;;;;;;;11.77;6.68;;;23.70;87.80;;;;;;5072830;28;20039;-60
2022/08/14 07:51:33;;;;;;;8.55;5.90;;;24.00;87.80;;;;;;5071655;28;20069;-61
2022/08/14 07:53:59;;;;;;;11.07;6.65;;;24.20;86.60;;;;;;5071451;28;20479;-60
2022/08/14 07:56:24;;;;;;;10.48;6.53;;;24.40;84.90;;;;;;5071529;28;20044;-61
2022/08/14 07:58:51;;;;;;;11.80;6.30;;;24.50;84.30;;;;;;5072722;28;20055;-60
2022/08/14 08:01:18;;;;;;;15.65;6.05;;;24.50;82.60;;;;;;5071540;28;20063;-60
2022/08/14 08:03:46;;;;;;;8.60;6.45;;;24.50;79.00;;;;;;5072322;28;20047;-60
2022/08/14 08:06:15;;;;;;;7.80;6.10;;;24.60;79.20;;;;;;5069361;28;20051;-63
2022/08/14 08:08:42;;;;;;;8.20;5.45;;;24.70;76.20;;;;;;5060613;28;20039;-59
2022/08/14 08:11:10;;;;;;;9.35;5.47;;;24.70;74.70;;;;;;5072460;28;20556;-61
2022/08/14 08:13:40;;;;;;;9.07;5.95;;;24.80;75.60;;;;;;5070132;28;20024;-61
2022/08/14 08:16:07;;;;;;;5.65;4.82;;;25.00;73.80;;;;;;5071638;28;20052;-60
2022/08/14 08:18:33;;;;;;;7.18;5.00;;;25.20;70.10;;;;;;5071309;28;20020;-60
2022/08/14 08:20:59;;;;;;;5.65;4.70;;;25.40;69.60;;;;;;5070683;28;20024;-61
2022/08/14 08:23:27;;;;;;;7.80;5.20;;;25.40;67.00;;;;;;5070191;28;20052;-61
2022/08/14 08:25:53;;;;;;;6.35;4.93;;;25.50;65.80;;;;;;5071098;28;20387;-61
2022/08/14 08:28:22;;;;;;;8.30;5.15;;;25.50;66.50;;;;;;5070897;28;20032;-60
2022/08/14 08:30:55;;;;;;;7.57;4.68;;;25.50;67.70;;;;;;5071852;28;20025;-61
2022/08/14 08:33:23;;;;;;;8.00;5.00;;;25.60;63.90;;;;;;5071033;28;20024;-60
2022/08/14 08:35:50;;;;;;;6.22;4.68;;;25.90;61.40;;;;;;5071628;28;20078;-59
2022/08/14 08:38:22;;;;;;;8.10;5.00;;;25.90;61.90;;;;;;5070781;28;20039;-62
2022/08/14 08:40:49;;;;;;;5.60;4.70;;;26.10;62.90;;;;;;5068687;28;20119;-60
2022/08/14 08:43:29;;;;;;;6.03;4.72;;;26.20;60.80;;;;;;5050982;28;20354;-63
2022/08/14 08:46:04;;;;;;;7.40;4.93;;;26.40;60.30;;;;;;5051397;28;20057;-60
2022/08/14 08:48:48;;;;;;;8.32;4.70;;;26.60;61.90;;;;;;5051030;28;20447;-61
2022/08/14 08:51:24;;;;;;;9.98;5.50;;;26.70;59.20;;;;;;5051124;28;20033;-63
2022/08/14 08:54:01;;;;;;;7.88;5.10;;;26.70;59.00;;;;;;5051453;28;20047;-60
2022/08/14 08:56:40;;;;;;;6.13;5.10;;;26.80;59.40;;;;;;5062927;28;20132;-60
2022/08/14 08:59:18;;;;;;;8.50;4.60;;;27.00;59.20;;;;;;5071277;28;20037;-60
2022/08/14 09:01:57;;;;;;;6.57;5.20;;;27.10;58.60;;;;;;5071338;28;20024;-60
2022/08/14 09:04:24;;;;;;;6.63;5.05;;;27.30;58.90;;;;;;5070414;28;20017;-62
2022/08/14 09:06:51;;;;;;;12.02;5.20;;;27.40;58.70;;;;;;5071176;28;20085;-60
2022/08/14 09:09:28;;;;;;;6.18;5.05;;;27.30;56.90;;;;;;5070367;28;20033;-63
2022/08/14 09:11:57;;;;;;;7.35;5.32;;;27.30;57.30;;;;;;5070781;28;20040;-61
2022/08/14 09:14:25;;;;;;;5.40;4.72;;;27.40;56.90;;;;;;5069937;28;20033;-61
2022/08/14 09:16:52;;;;;;;9.30;5.40;;;27.50;57.30;;;;;;5070891;28;20068;-61
2022/08/14 09:19:18;;;;;;;7.78;5.10;;;27.70;56.80;;;;;;5068678;28;20036;-63
2022/08/14 09:21:45;;;;;;;8.45;5.45;;;27.90;56.50;;;;;;5070879;28;20463;-60
2022/08/14 09:24:11;;;;;;;9.95;5.32;;;28.00;55.90;;;;;;5070837;28;20032;-60
2022/08/14 09:26:36;;;;;;;6.00;5.05;;;28.00;54.70;;;;;;5067798;28;20036;-60
2022/08/14 09:29:07;;;;;;;5.78;4.97;;;28.00;54.50;;;;;;5070678;28;20102;-61
2022/08/14 09:31:36;;;;;;;5.72;4.65;;;28.10;54.90;;;;;;5069703;28;20123;-62
2022/08/14 09:34:38;;;;;;;6.13;5.35;;;28.10;55.50;;;;;;5070683;28;20455;-59
2022/08/14 09:37:42;;;;;;;5.80;5.18;;;28.30;55.30;;;;;;5067092;28;20029;-61
2022/08/14 09:40:25;;;;;;;6.22;5.13;;;28.30;53.70;;;;;;5069145;28;20666;-60
2022/08/14 09:42:56;;;;;;;6.55;5.20;;;28.20;53.90;;;;;;5059048;28;20071;-60
2022/08/14 09:45:37;;;;;;;8.20;4.90;;;28.30;54.00;;;;;;5049404;28;20044;-60
2022/08/14 09:48:15;;;;;;;6.15;4.97;;;28.40;53.50;;;;;;5050467;28;20037;-61
2022/08/14 09:50:50;;;;;;;5.65;5.03;;;28.30;53.80;;;;;;5049837;28;20033;-60
2022/08/14 09:53:36;;;;;;;9.77;5.20;;;28.50;54.40;;;;;;5050013;28;20356;-62
2022/08/14 09:56:03;;;;;;;7.80;5.22;;;28.40;53.80;;;;;;5054851;28;20025;-60
2022/08/14 09:58:43;;;;;;;8.18;4.72;;;28.60;53.80;;;;;;5069150;28;20040;-61
2022/08/14 10:01:17;;;;;;;7.35;5.70;;;28.80;52.90;;;;;;5070042;28;20115;-60
2022/08/14 10:03:53;;;;;;;6.07;5.22;;;28.80;52.60;;;;;;5068607;28;20498;-61
2022/08/14 10:06:24;;;;;;;6.43;5.72;;;28.90;53.20;;;;;;5067846;28;20021;-64
2022/08/14 10:08:53;;;;;;;5.90;5.10;;;28.80;52.10;;;;;;5070022;28;20027;-61
2022/08/14 10:11:22;;;;;;;5.85;5.13;;;28.70;52.10;;;;;;5068360;28;20025;-64
2022/08/14 10:13:53;;;;;;;7.50;5.30;;;29.00;52.30;;;;;;5069937;28;20040;-61
2022/08/14 10:16:25;;;;;;;5.97;5.18;;;29.10;52.30;;;;;;5069542;28;20029;-63
2022/08/14 10:19:09;;;;;;;7.15;5.28;;;29.10;51.80;;;;;;5069913;28;20455;-60
2022/08/14 10:21:36;;;;;;;5.68;5.00;;;29.30;51.30;;;;;;5068730;28;20777;-60
2022/08/14 10:24:07;;;;;;;7.35;5.25;;;29.30;51.50;;;;;;5069813;28;20021;-61
2022/08/14 10:26:33;;;;;;;7.95;5.25;;;29.50;51.40;;;;;;5064098;28;20079;-62
2022/08/14 10:29:08;;;;;;;5.80;5.20;;;29.60;50.50;;;;;;5061268;28;20033;-61
2022/08/14 10:31:37;;;;;;;8.23;5.25;;;29.60;50.20;;;;;;5064606;28;20029;-61
2022/08/14 10:34:05;;;;;;;6.05;5.40;;;29.90;51.30;;;;;;5065067;28;20060;-60
2022/08/14 10:36:32;;;;;;;6.40;5.22;;;30.10;51.40;;;;;;5067484;28;20451;-60
2022/08/14 10:39:01;;;;;;;6.07;5.18;;;30.00;48.90;;;;;;5061777;28;20110;-61
2022/08/14 10:41:39;;;;;;;5.75;5.15;;;29.80;49.30;;;;;;5065491;28;20052;-60
2022/08/14 10:44:13;;;;;;;5.68;4.97;;;29.90;49.40;;;;;;5069676;28;20017;-61
2022/08/14 10:47:03;;;;;;;12.68;5.43;;;30.00;49.30;;;;;;5062876;28;20060;-61
2022/08/14 10:49:29;;;;;;;;;;;30.10;48.40;;;;;;5048438;28;20396;-62
2022/08/14 10:52:07;;;;;;;6.53;5.28;;;29.90;48.00;;;;;;5062768;28;19911;-62
2022/08/14 10:54:38;;;;;;;8.70;5.22;;;30.00;49.20;;;;;;5063261;28;20120;-61
2022/08/14 10:57:21;;;;;;;5.88;4.93;;;30.40;48.90;;;;;;5062472;28;20044;-61
2022/08/14 11:00:12;;;;;;;14.80;5.05;;;30.30;48.60;;;;;;5058942;28;20050;-62
2022/08/14 11:02:41;;;;;;;12.73;5.65;;;30.50;48.20;;;;;;5064025;28;20045;-61
2022/08/14 11:05:13;;;;;;;5.77;5.10;;;30.80;48.60;;;;;;5062672;28;20021;-61
2022/08/14 11:07:40;;;;;;;5.70;5.10;;;30.80;46.80;;;;;;5066968;28;20129;-61
2022/08/14 11:10:11;;;;;;;7.25;5.18;;;30.50;47.90;;;;;;5062479;28;20035;-61
2022/08/14 11:12:49;;;;;;;6.03;4.93;;;30.40;48.70;;;;;;5064416;28;20589;-59
2022/08/14 11:15:21;;;;;;;7.68;5.15;;;30.40;48.10;;;;;;5052993;28;20035;-62
2022/08/14 11:17:49;;;;;;;6.05;5.00;;;30.50;47.10;;;;;;5063063;28;20044;-60
2022/08/14 11:20:17;;;;;;;5.78;5.00;;;30.60;47.90;;;;;;5070667;28;20089;-60
2022/08/14 11:22:44;;;;;;;7.32;5.60;;;30.80;47.30;;;;;;5066740;28;20029;-64
2022/08/14 11:25:12;;;;;;;5.60;5.05;;;30.90;47.40;;;;;;5066531;28;20558;-60
2022/08/14 11:27:43;;;;;;;6.78;5.10;;;30.90;46.40;;;;;;5071084;28;20071;-61
2022/08/14 11:30:15;;;;;;;10.60;5.40;;;30.50;49.10;;;;;;5069057;28;20074;-61
2022/08/14 11:32:44;;;;;;;6.80;5.60;;;30.60;47.50;;;;;;5069813;28;20556;-61
2022/08/14 11:35:14;;;;;;;9.50;5.63;;;30.60;47.40;;;;;;5065653;28;20032;-60
2022/08/14 11:38:01;;;;;;;7.63;4.95;;;30.60;48.20;;;;;;5063548;28;20398;-61
2022/08/14 11:40:30;;;;;;;8.73;5.07;;;30.60;46.50;;;;;;5065850;28;20474;-61
2022/08/14 11:42:57;;;;;;;6.80;5.13;;;30.60;46.40;;;;;;5067439;28;20036;-60
2022/08/14 11:45:34;;;;;;;14.23;5.47;;;30.60;47.50;;;;;;5061671;28;20136;-64
2022/08/14 11:48:12;;;;;;;8.38;5.10;;;30.90;46.20;;;;;;5071325;28;20081;-61
2022/08/14 11:50:38;;;;;;;7.35;5.15;;;30.90;46.70;;;;;;5062571;28;20380;-61
2022/08/14 11:53:19;;;;;;;5.70;5.10;;;30.90;45.20;;;;;;5067751;28;20090;-63
2022/08/14 11:55:45;;;;;;;;;;;30.90;46.30;;;;;;5067163;28;20611;-61
2022/08/14 11:58:11;;;;;;;5.32;4.82;;;31.20;46.40;;;;;;5064708;28;19920;-61
2022/08/14 12:00:48;;;;;;;9.50;5.10;;;31.60;46.00;;;;;;5064691;28;20036;-61
2022/08/14 12:03:14;;;;;;;5.60;5.00;;;31.60;45.00;;;;;;5069128;28;20028;-60
2022/08/14 12:05:41;;;;;;;5.05;4.55;;;31.50;44.60;;;;;;5064953;28;20545;-61
2022/08/14 12:08:08;;;;;;;6.22;5.20;;;31.40;45.00;;;;;;5061011;28;20372;-61
2022/08/14 12:10:34;;;;;;;6.95;4.80;;;31.50;44.70;;;;;;5059568;28;20372;-62
2022/08/14 12:13:17;;;;;;;9.68;5.10;;;31.50;43.50;;;;;;5059053;28;20028;-61
2022/08/14 12:15:47;;;;;;;5.20;4.68;;;31.30;44.20;;;;;;5065267;28;20060;-62
2022/08/14 12:18:14;;;;;;;6.45;5.32;;;31.50;44.10;;;;;;5061011;28;20040;-62
2022/08/14 12:20:42;;;;;;;6.68;5.10;;;31.60;44.70;;;;;;5059975;28;20045;-61
2022/08/14 12:23:21;;;;;;;5.43;4.88;;;31.40;43.50;;;;;;5058136;28;20037;-61
2022/08/14 12:25:47;;;;;;;5.50;4.90;;;31.50;43.80;;;;;;5060993;28;20076;-60
2022/08/14 12:28:14;;;;;;;5.68;5.05;;;31.60;43.60;;;;;;5060446;28;20040;-62
2022/08/14 12:30:43;;;;;;;5.75;5.18;;;31.80;43.60;;;;;;5058429;28;20044;-61
2022/08/14 12:33:31;;;;;;;9.63;5.20;;;32.20;43.10;;;;;;5058837;28;20029;-62
2022/08/14 12:35:59;;;;;;;5.63;5.00;;;32.50;42.60;;;;;;5061264;28;20037;-61
2022/08/14 12:38:59;;;;;;;8.93;5.30;;;32.30;42.10;;;;;;5061801;28;20059;-65
2022/08/14 12:41:29;;;;;;;7.60;4.95;;;32.30;42.80;;;;;;5039789;28;20037;-61
2022/08/14 12:44:00;;;;;;;5.97;5.38;;;31.90;41.20;;;;;;5054991;28;20403;-61
2022/08/14 12:46:40;;;;;;;7.72;4.90;;;31.50;41.20;;;;;;5064988;28;20427;-64
2022/08/14 12:49:09;;;;;;;8.13;5.10;;;31.50;43.30;;;;;;5063397;28;20394;-63
2022/08/14 12:51:35;;;;;;;9.27;5.40;;;32.00;42.40;;;;;;5065119;28;20478;-62
2022/08/14 12:54:17;;;;;;;8.45;5.57;;;31.80;41.90;;;;;;5061433;28;20112;-62
2022/08/14 12:56:45;;;;;;;9.07;5.63;;;31.90;43.60;;;;;;5066555;28;20032;-61
2022/08/14 12:59:10;;;;;;;30.88;18.50;;;32.10;42.00;;;;;;5061818;28;20103;-61
2022/08/14 13:01:37;;;;;;;13.38;8.02;;;31.90;42.50;;;;;;5062736;28;20462;-61
2022/08/14 13:04:16;;;;;;;6.28;5.55;;;31.60;43.40;;;;;;5061424;28;20028;-61
2022/08/14 13:06:44;;;;;;;6.78;5.30;;;31.00;42.90;;;;;;5066780;28;20111;-61
2022/08/14 13:09:13;;;;;;;7.60;4.90;;;30.60;44.20;;;;;;5068492;28;20024;-63
2022/08/14 13:11:50;;;;;;;6.23;5.10;;;30.80;45.00;;;;;;5064819;28;20043;-61